createdAt,value
2018-12-25T00:01:40.482Z,11.30
2018-12-25T00:04:09.231Z,12.23
2018-12-25T00:06:37.843Z,11.50
2018-12-25T00:09:46.425Z,11.17
2018-12-25T00:12:15.058Z,11.27
2018-12-25T00:14:43.719Z,10.80
2018-12-25T00:17:12.346Z,11.00
2018-12-25T00:19:41.277Z,11.90
2018-12-25T00:22:09.919Z,10.43
2018-12-25T00:24:38.518Z,11.03
2018-12-25T00:27:07.281Z,11.07
2018-12-25T00:29:35.866Z,11.60
2018-12-25T00:32:04.547Z,10.83
2018-12-25T00:34:33.069Z,12.00
2018-12-25T00:37:01.895Z,11.80
2018-12-25T00:39:30.578Z,12.63
2018-12-25T00:41:59.222Z,11.70
2018-12-25T00:44:27.982Z,11.33
2018-12-25T00:46:56.690Z,11.83
2018-12-25T00:49:25.340Z,12.43
2018-12-25T00:51:53.922Z,11.93
2018-12-25T00:54:22.487Z,11.80
2018-12-25T00:56:51.078Z,12.10
2018-12-25T00:59:19.842Z,12.27
2018-12-25T01:01:48.854Z,12.60
2018-12-25T01:04:17.452Z,11.77
2018-12-25T01:06:46.027Z,11.70
2018-12-25T01:09:14.752Z,12.63
2018-12-25T01:11:43.427Z,12.80
2018-12-25T01:14:12.074Z,12.70
2018-12-25T01:16:40.645Z,13.20
2018-12-25T01:19:09.272Z,12.17
2018-12-25T01:21:37.996Z,12.20
2018-12-25T01:24:06.612Z,11.97
2018-12-25T01:26:35.309Z,12.90
2018-12-25T01:29:03.879Z,12.40
2018-12-25T01:31:32.632Z,12.30
2018-12-25T01:34:01.195Z,11.83
2018-12-25T01:36:29.833Z,12.60
2018-12-25T01:38:58.465Z,12.17
2018-12-25T01:41:27.189Z,13.20
2018-12-25T01:43:55.758Z,12.77
2018-12-25T01:46:24.507Z,12.37
2018-12-25T01:48:53.215Z,13.00
2018-12-25T01:51:21.852Z,13.03
2018-12-25T01:53:50.432Z,13.50
2018-12-25T01:56:19.010Z,13.30
2018-12-25T01:58:47.943Z,13.30
2018-12-25T02:01:16.761Z,12.23
2018-12-25T02:03:45.734Z,12.53
2018-12-25T02:06:14.436Z,12.50
2018-12-25T02:08:43.096Z,13.10
2018-12-25T02:11:11.569Z,12.37
2018-12-25T02:13:40.156Z,11.90
2018-12-25T02:16:08.743Z,12.23
2018-12-25T02:18:37.417Z,12.20
2018-12-25T02:21:06.439Z,11.90
2018-12-25T02:23:35.105Z,11.97
2018-12-25T02:26:43.662Z,11.50
2018-12-25T02:29:12.334Z,12.20
2018-12-25T02:31:41.336Z,12.00
2018-12-25T02:34:09.959Z,11.00
2018-12-25T02:36:38.554Z,12.90
2018-12-25T02:39:26.461Z,11.70
2018-12-25T02:41:55.134Z,11.77
2018-12-25T02:44:24.322Z,11.80
2018-12-25T02:46:53.119Z,11.80
2018-12-25T02:49:21.715Z,12.93
2018-12-25T02:51:50.694Z,11.63
2018-12-25T02:54:19.385Z,10.97
2018-12-25T02:56:48.110Z,11.07
2018-12-25T02:59:16.723Z,10.80
2018-12-25T03:01:45.865Z,11.80
2018-12-25T03:04:14.427Z,11.30
2018-12-25T03:06:43.086Z,10.53
2018-12-25T03:09:11.695Z,10.93
2018-12-25T03:11:40.318Z,10.60
2018-12-25T03:14:09.015Z,10.43
2018-12-25T03:16:38.531Z,10.77
2018-12-25T03:19:07.094Z,11.23
2018-12-25T03:21:35.732Z,10.77
2018-12-25T03:24:04.316Z,11.03
2018-12-25T03:26:33.239Z,11.10
2018-12-25T03:29:01.897Z,10.57
2018-12-25T03:31:30.537Z,12.00
2018-12-25T03:33:59.186Z,10.67
2018-12-25T03:36:27.704Z,10.90
2018-12-25T03:38:56.460Z,11.63
2018-12-25T03:41:25.123Z,10.77
2018-12-25T03:43:53.782Z,11.10
2018-12-25T03:46:22.380Z,10.67
2018-12-25T03:48:51.064Z,10.40
2018-12-25T03:51:19.751Z,10.60
2018-12-25T03:53:48.496Z,10.10
2018-12-25T03:56:17.126Z,10.53
2018-12-25T03:58:45.696Z,10.70
2018-12-25T04:01:14.449Z,10.43
2018-12-25T04:03:43.038Z,10.43
2018-12-25T04:06:11.701Z,10.73
2018-12-25T04:08:40.351Z,10.13
2018-12-25T04:11:09.007Z,10.30
2018-12-25T04:13:37.569Z,10.67
2018-12-25T04:16:06.246Z,9.80
2018-12-25T04:18:35.368Z,9.83
2018-12-25T04:21:04.025Z,9.57
2018-12-25T04:23:32.622Z,10.23
2018-12-25T04:26:01.200Z,9.90
2018-12-25T04:28:29.774Z,9.87
2018-12-25T04:30:58.385Z,10.00
2018-12-25T04:33:27.009Z,9.93
2018-12-25T04:35:55.596Z,9.30
2018-12-25T04:38:24.244Z,10.30
2018-12-25T04:40:52.956Z,9.83
2018-12-25T04:43:21.485Z,9.70
2018-12-25T04:45:50.041Z,10.27
2018-12-25T04:48:18.601Z,9.40
2018-12-25T04:50:47.292Z,9.27
2018-12-25T04:53:15.995Z,9.20
2018-12-25T04:55:44.738Z,8.33
2018-12-25T04:58:13.296Z,8.77
2018-12-25T05:00:41.972Z,8.83
2018-12-25T05:03:10.502Z,9.50
2018-12-25T05:05:39.491Z,8.57
2018-12-25T05:08:08.057Z,8.47
2018-12-25T05:10:36.694Z,9.00
2018-12-25T05:13:05.228Z,8.63
2018-12-25T05:15:33.938Z,9.07
2018-12-25T05:18:02.400Z,8.97
2018-12-25T05:20:37.804Z,8.93
2018-12-25T05:23:01.468Z,9.00
2018-12-25T05:25:29.997Z,9.13
2018-12-25T05:27:58.608Z,8.73
2018-12-25T05:30:27.178Z,8.70
2018-12-25T05:32:55.855Z,8.50
2018-12-25T05:35:24.761Z,8.50
2018-12-25T05:37:53.282Z,8.93
2018-12-25T05:40:21.940Z,8.73
2018-12-25T05:42:50.521Z,8.23
2018-12-25T05:45:19.102Z,9.10
2018-12-25T05:47:47.725Z,8.40
2018-12-25T05:50:16.413Z,8.57
2018-12-25T05:52:45.059Z,8.40
2018-12-25T05:55:13.676Z,8.53
2018-12-25T05:57:42.380Z,8.77
2018-12-25T06:00:11.098Z,8.47
2018-12-25T06:02:39.727Z,8.20
2018-12-25T06:05:08.570Z,8.67
2018-12-25T06:07:37.133Z,8.77
2018-12-25T06:10:05.808Z,8.73
2018-12-25T06:12:34.399Z,8.43
2018-12-25T06:15:03.016Z,8.73
2018-12-25T06:17:31.670Z,8.93
2018-12-25T06:20:00.272Z,9.00
2018-12-25T06:22:29.198Z,8.97
2018-12-25T06:24:57.758Z,8.70
2018-12-25T06:27:26.468Z,8.73
2018-12-25T06:29:55.170Z,8.50
2018-12-25T06:32:23.766Z,8.13
2018-12-25T06:34:52.405Z,8.47
2018-12-25T06:37:21.337Z,8.23
2018-12-25T06:39:50.064Z,8.90
2018-12-25T06:42:18.544Z,8.57
2018-12-25T06:45:06.538Z,8.70
2018-12-25T06:47:35.331Z,8.03
2018-12-25T06:50:03.956Z,8.20
2018-12-25T06:52:32.561Z,8.40
2018-12-25T06:55:01.279Z,8.90
2018-12-25T06:57:30.273Z,8.27
2018-12-25T06:59:59.036Z,8.30
2018-12-25T07:02:27.807Z,9.03
2018-12-25T07:04:56.478Z,8.30
2018-12-25T07:07:25.089Z,8.57
2018-12-25T07:09:53.703Z,8.80
2018-12-25T07:12:22.360Z,8.57
2018-12-25T07:14:50.920Z,7.97
2018-12-25T07:17:19.655Z,8.33
2018-12-25T07:19:48.251Z,8.47
2018-12-25T07:22:16.770Z,9.27
2018-12-25T07:24:45.314Z,8.57
2018-12-25T07:27:14.100Z,8.80
2018-12-25T07:29:42.785Z,8.50
2018-12-25T07:32:11.395Z,8.40
2018-12-25T07:34:39.925Z,8.40
2018-12-25T07:37:08.449Z,8.40
2018-12-25T07:39:37.055Z,8.97
2018-12-25T07:42:05.663Z,8.30
2018-12-25T07:44:34.317Z,8.60
2018-12-25T07:47:02.976Z,9.00
2018-12-25T07:49:31.549Z,9.67
2018-12-25T07:52:00.148Z,8.83
2018-12-25T07:54:28.838Z,8.77
2018-12-25T07:56:57.475Z,9.07
2018-12-25T07:59:26.168Z,9.03
2018-12-25T08:01:54.798Z,8.87
2018-12-25T08:04:23.430Z,9.50
2018-12-25T08:06:52.144Z,9.40
2018-12-25T08:09:20.732Z,8.90
2018-12-25T08:11:49.472Z,9.13
2018-12-25T08:14:18.418Z,8.87
2018-12-25T08:16:47.048Z,8.70
2018-12-25T08:19:15.780Z,8.60
2018-12-25T08:21:44.425Z,8.70
2018-12-25T08:24:12.940Z,9.00
2018-12-25T08:26:41.601Z,8.97
2018-12-25T08:29:10.202Z,9.30
2018-12-25T08:31:39.167Z,8.77
2018-12-25T08:34:07.798Z,9.50
2018-12-25T08:36:36.620Z,8.80
2018-12-25T08:39:45.164Z,9.83
2018-12-25T08:42:13.633Z,8.47
2018-12-25T08:44:42.305Z,8.73
2018-12-25T08:47:11.662Z,8.87
2018-12-25T08:49:41.278Z,8.47
2018-12-25T08:52:09.900Z,8.70
2018-12-25T08:54:38.615Z,8.67
2018-12-25T08:57:07.307Z,8.87
2018-12-25T08:59:35.988Z,9.10
2018-12-25T09:02:04.636Z,9.70
2018-12-25T09:04:33.178Z,8.60
2018-12-25T09:07:01.800Z,9.20
2018-12-25T09:09:30.515Z,8.90
2018-12-25T09:11:59.144Z,8.67
2018-12-25T09:14:27.749Z,8.60
2018-12-25T09:16:56.376Z,8.77
2018-12-25T09:19:25.054Z,8.47
2018-12-25T09:21:53.641Z,9.30
2018-12-25T09:24:22.258Z,8.97
2018-12-25T09:26:50.916Z,9.20
2018-12-25T09:29:19.566Z,8.80
2018-12-25T09:31:48.222Z,9.03
2018-12-25T09:34:16.911Z,8.87
2018-12-25T09:36:45.394Z,8.77
2018-12-25T09:39:14.130Z,9.07
2018-12-25T09:41:42.687Z,9.03
2018-12-25T09:44:11.228Z,9.00
2018-12-25T09:46:39.950Z,9.03
2018-12-25T09:49:27.862Z,9.40
2018-12-25T09:51:56.491Z,8.40
2018-12-25T09:54:25.102Z,9.10
2018-12-25T09:56:53.894Z,9.10
2018-12-25T09:59:22.478Z,8.53
2018-12-25T10:01:51.048Z,9.67
2018-12-25T10:04:19.594Z,9.23
2018-12-25T10:06:48.383Z,8.87
2018-12-25T10:09:17.098Z,8.13
2018-12-25T10:11:45.695Z,8.77
2018-12-25T10:14:14.465Z,8.37
2018-12-25T10:16:43.061Z,9.80
2018-12-25T10:19:11.697Z,8.87
2018-12-25T10:21:40.226Z,8.77
2018-12-25T10:24:08.895Z,8.33
2018-12-25T10:26:37.447Z,8.90
2018-12-25T10:29:06.120Z,8.40
2018-12-25T10:31:34.619Z,8.53
2018-12-25T10:34:03.302Z,8.40
2018-12-25T10:36:31.839Z,8.70
2018-12-25T10:39:00.514Z,8.23
2018-12-25T10:41:29.155Z,9.50
2018-12-25T10:43:57.960Z,8.80
2018-12-25T10:46:26.605Z,8.90
2018-12-25T10:48:55.205Z,8.50
2018-12-25T10:51:24.342Z,8.60
2018-12-25T10:53:52.979Z,8.53
2018-12-25T10:56:21.570Z,8.50
2018-12-25T10:58:50.137Z,9.00
2018-12-25T11:01:18.623Z,8.70
2018-12-25T11:03:47.283Z,8.20
2018-12-25T11:06:16.029Z,8.37
2018-12-25T11:08:45.705Z,9.13
2018-12-25T11:11:14.420Z,8.50
2018-12-25T11:13:43.659Z,8.43
2018-12-25T11:16:12.161Z,8.27
2018-12-25T11:18:48.911Z,8.87
2018-12-25T11:21:21.513Z,8.23
2018-12-25T11:23:50.145Z,8.60
2018-12-25T11:26:18.760Z,7.90
2018-12-25T11:28:47.374Z,8.80
2018-12-25T11:31:15.939Z,8.40
2018-12-25T11:33:45.013Z,8.53
2018-12-25T11:36:13.667Z,8.03
2018-12-25T11:38:42.341Z,8.40
2018-12-25T11:41:10.964Z,8.77
2018-12-25T11:43:39.642Z,7.93
2018-12-25T11:46:08.418Z,8.40
2018-12-25T11:48:36.961Z,8.17
2018-12-25T11:51:05.710Z,8.80
2018-12-25T11:53:34.352Z,8.70
2018-12-25T11:56:03.072Z,8.57
2018-12-25T11:58:31.670Z,8.80
2018-12-25T12:01:00.364Z,8.60
2018-12-25T12:03:28.936Z,8.27
2018-12-25T12:05:57.606Z,8.40
2018-12-25T12:08:26.240Z,8.40
2018-12-25T12:10:54.928Z,8.30
2018-12-25T12:13:23.542Z,7.87
2018-12-25T12:15:52.232Z,7.87
2018-12-25T12:18:20.800Z,8.27
2018-12-25T12:20:49.555Z,8.13
2018-12-25T12:23:18.272Z,9.13
2018-12-25T12:25:46.739Z,8.90
2018-12-25T12:28:15.822Z,9.27
2018-12-25T12:30:44.711Z,8.27
2018-12-25T12:33:15.472Z,8.93
2018-12-25T12:35:43.832Z,8.70
2018-12-25T12:38:12.548Z,8.50
2018-12-25T12:40:42.733Z,9.00
2018-12-25T12:43:11.396Z,9.23
2018-12-25T12:45:40.070Z,9.47
2018-12-25T12:48:08.844Z,8.63
2018-12-25T12:50:37.489Z,8.27
2018-12-25T12:53:06.145Z,8.00
2018-12-25T12:55:34.747Z,8.67
2018-12-25T12:58:03.470Z,8.30
2018-12-25T13:00:32.043Z,9.20
2018-12-25T13:03:01.137Z,8.73
2018-12-25T13:05:29.839Z,8.80
2018-12-25T13:07:58.499Z,8.30
2018-12-25T13:10:27.084Z,8.43
2018-12-25T13:12:56.079Z,8.87
2018-12-25T13:15:24.800Z,9.03
2018-12-25T13:17:53.511Z,8.07
2018-12-25T13:20:22.204Z,9.00
2018-12-25T13:22:54.265Z,8.40
2018-12-25T13:25:21.298Z,8.10
2018-12-25T13:27:49.941Z,8.53
2018-12-25T13:30:18.599Z,8.97
2018-12-25T13:33:06.333Z,8.93
2018-12-25T13:35:35.015Z,8.90
2018-12-25T13:38:03.939Z,8.67
2018-12-25T13:40:32.566Z,8.50
2018-12-25T13:43:01.130Z,9.20
2018-12-25T13:45:30.211Z,8.70
2018-12-25T13:47:58.873Z,8.47
2018-12-25T13:50:27.481Z,8.40
2018-12-25T13:53:02.783Z,8.60
2018-12-25T13:55:26.726Z,8.30
2018-12-25T13:57:55.336Z,8.23
2018-12-25T14:00:23.970Z,8.70
2018-12-25T14:02:52.659Z,7.80
2018-12-25T14:05:40.862Z,8.77
2018-12-25T14:08:09.431Z,8.33
2018-12-25T14:10:37.981Z,8.83
2018-12-25T14:13:07.208Z,8.63
2018-12-25T14:15:35.986Z,8.40
2018-12-25T14:18:04.648Z,8.40
2018-12-25T14:20:33.567Z,9.20
2018-12-25T14:23:02.397Z,8.27
2018-12-25T14:25:31.103Z,8.50
2018-12-25T14:27:59.879Z,8.90
2018-12-25T14:30:28.400Z,8.70
2018-12-25T14:32:57.079Z,9.27
2018-12-25T14:35:25.745Z,9.37
2018-12-25T14:37:54.396Z,8.70
2018-12-25T14:40:23.147Z,8.30
2018-12-25T14:42:51.911Z,9.00
2018-12-25T14:45:20.554Z,8.70
2018-12-25T14:50:39.066Z,8.90
2018-12-25T14:53:07.740Z,9.20
2018-12-25T14:55:55.938Z,9.00
2018-12-25T14:58:43.707Z,8.73
2018-12-25T15:01:12.547Z,8.90
2018-12-25T15:03:41.305Z,9.10
2018-12-25T15:06:10.114Z,8.80
2018-12-25T15:08:38.771Z,9.30
2018-12-25T15:11:07.476Z,9.43
2018-12-25T15:13:36.137Z,9.60
2018-12-25T15:16:04.818Z,9.37
2018-12-25T15:18:33.710Z,9.30
2018-12-25T15:21:02.590Z,9.30
2018-12-25T15:23:31.397Z,10.10
2018-12-25T15:25:59.971Z,8.90
2018-12-25T15:28:28.657Z,9.60
2018-12-25T15:30:57.257Z,9.73
2018-12-25T15:33:26.011Z,8.93
2018-12-25T15:35:54.612Z,10.57
2018-12-25T15:38:23.356Z,8.80
2018-12-25T15:40:52.292Z,9.60
2018-12-25T15:43:21.075Z,9.03
2018-12-25T15:45:49.598Z,9.37
2018-12-25T15:48:18.333Z,9.20
2018-12-25T15:53:36.993Z,9.43
2018-12-25T15:56:19.202Z,9.30
2018-12-25T15:58:37.545Z,9.50
2018-12-25T16:01:06.233Z,9.10
2018-12-25T16:03:34.860Z,9.20
2018-12-25T16:06:03.474Z,9.03
2018-12-25T16:08:32.164Z,10.73
2018-12-25T16:11:00.808Z,9.40
2018-12-25T16:13:29.676Z,8.90
2018-12-25T16:15:58.506Z,9.10
2018-12-25T16:18:27.176Z,8.90
2018-12-25T16:20:55.900Z,9.53
2018-12-25T16:23:24.487Z,9.50
2018-12-25T16:25:53.252Z,9.40
2018-12-25T16:28:21.874Z,9.13
2018-12-25T16:30:50.467Z,10.03
2018-12-25T16:33:19.133Z,9.03
2018-12-25T16:35:47.772Z,9.07
2018-12-25T16:38:16.488Z,9.60
2018-12-25T16:40:45.133Z,9.73
2018-12-25T16:43:13.807Z,9.57
2018-12-25T16:45:42.395Z,9.10
2018-12-25T16:48:11.014Z,9.37
2018-12-25T16:50:40.263Z,9.47
2018-12-25T16:53:10.293Z,9.33
2018-12-25T16:55:38.896Z,9.43
2018-12-25T16:58:07.507Z,9.10
2018-12-25T17:00:36.270Z,9.70
2018-12-25T17:03:04.945Z,9.37
2018-12-25T17:05:33.541Z,9.80
2018-12-25T17:08:02.163Z,10.50
2018-12-25T17:10:30.765Z,9.13
2018-12-25T17:12:59.790Z,9.67
2018-12-25T17:15:28.579Z,9.93
2018-12-25T17:17:57.133Z,9.90
2018-12-25T17:20:25.665Z,9.20
2018-12-25T17:22:54.313Z,9.87
2018-12-25T17:25:23.035Z,10.10
2018-12-25T17:27:51.658Z,10.37
2018-12-25T17:31:00.277Z,9.60
2018-12-25T17:33:28.938Z,9.87
2018-12-25T17:35:57.744Z,9.97
2018-12-25T17:38:26.381Z,9.30
2018-12-25T17:40:55.007Z,9.00
2018-12-25T17:43:23.546Z,9.70
2018-12-25T17:45:52.115Z,9.20
2018-12-25T17:48:20.786Z,9.43
2018-12-25T17:50:50.035Z,9.60
2018-12-25T17:53:18.781Z,9.70
2018-12-25T17:55:47.362Z,11.57
2018-12-25T17:58:16.010Z,9.73
2018-12-25T18:00:44.659Z,9.23
2018-12-25T18:03:13.226Z,9.30
2018-12-25T18:05:41.981Z,9.03
2018-12-25T18:08:10.581Z,9.20
2018-12-25T18:10:39.221Z,9.23
2018-12-25T18:13:07.900Z,9.13
2018-12-25T18:15:36.930Z,9.07
2018-12-25T18:18:05.573Z,9.00
2018-12-25T18:20:34.258Z,9.63
2018-12-25T18:23:02.942Z,9.17
2018-12-25T18:25:31.660Z,9.50
2018-12-25T18:28:00.387Z,10.10
2018-12-25T18:30:29.239Z,9.90
2018-12-25T18:32:57.827Z,9.30
2018-12-25T18:35:26.335Z,9.23
2018-12-25T18:37:55.058Z,8.70
2018-12-25T18:40:23.764Z,9.03
2018-12-25T18:42:52.465Z,9.40
2018-12-25T18:45:21.478Z,9.20
2018-12-25T18:47:50.180Z,9.00
2018-12-25T18:50:18.963Z,9.53
2018-12-25T18:52:47.804Z,9.27
2018-12-25T18:55:16.523Z,9.50
2018-12-25T18:57:45.108Z,9.40
2018-12-25T19:00:13.726Z,9.07
2018-12-25T19:02:42.427Z,9.30
2018-12-25T19:05:11.087Z,9.60
2018-12-25T19:07:39.839Z,9.40
2018-12-25T19:10:48.479Z,9.23
2018-12-25T19:13:29.554Z,8.80
2018-12-25T19:15:48.262Z,8.87
2018-12-25T19:18:17.215Z,8.63
2018-12-25T19:20:45.827Z,8.40
2018-12-25T19:23:14.483Z,9.00
2018-12-25T19:25:43.152Z,9.10
2018-12-25T19:28:11.861Z,9.23
2018-12-25T19:33:15.999Z,8.90
2018-12-25T19:35:44.673Z,8.77
2018-12-25T19:38:13.594Z,8.90
2018-12-25T19:40:42.835Z,9.20
2018-12-25T19:43:12.214Z,8.70
2018-12-25T19:45:40.885Z,8.80
2018-12-25T19:48:09.553Z,8.93
2018-12-25T19:50:38.242Z,8.80
2018-12-25T19:53:06.967Z,8.40
2018-12-25T19:55:36.003Z,9.00
2018-12-25T20:00:39.826Z,8.87
2018-12-25T20:03:08.509Z,8.60
2018-12-25T20:06:17.163Z,8.50
2018-12-25T20:09:26.179Z,8.50
2018-12-25T20:12:33.699Z,8.70
2018-12-25T20:15:42.359Z,8.40
2018-12-25T20:18:51.232Z,8.73
2018-12-25T20:25:29.945Z,8.40
2018-12-25T20:31:28.153Z,8.70
2018-12-25T20:37:51.505Z,8.50
2018-12-25T20:41:01.819Z,8.50
2018-12-25T20:47:22.755Z,8.50
2018-12-25T20:50:30.034Z,8.37
2018-12-25T20:53:38.736Z,8.57
2018-12-25T20:56:47.012Z,8.67
2018-12-25T20:59:54.534Z,8.70
2018-12-25T21:03:03.164Z,8.70
2018-12-25T21:06:10.456Z,8.70
2018-12-25T21:09:00.136Z,8.20
2018-12-25T21:12:08.719Z,8.80
2018-12-25T21:15:17.641Z,8.60
2018-12-25T21:18:24.993Z,8.10
2018-12-25T21:21:32.323Z,8.90
2018-12-25T21:24:39.743Z,9.13
2018-12-25T21:27:47.020Z,8.47
2018-12-25T21:30:15.767Z,9.37
2018-12-25T21:32:44.399Z,8.20
2018-12-25T21:35:52.996Z,9.30
2018-12-25T21:38:21.809Z,8.80
2018-12-25T21:40:50.508Z,8.47
2018-12-25T21:43:19.806Z,9.60
2018-12-25T21:45:48.561Z,8.77
2018-12-25T21:48:57.166Z,8.63
2018-12-25T21:51:25.921Z,8.50
2018-12-25T21:53:54.660Z,9.03
2018-12-25T21:56:23.511Z,9.17
2018-12-25T21:58:52.161Z,8.80
2018-12-25T22:01:20.833Z,8.47
2018-12-25T22:06:25.376Z,8.60
2018-12-25T22:08:53.983Z,9.10
2018-12-25T22:11:22.630Z,8.20
2018-12-25T22:13:51.270Z,8.50
2018-12-25T22:16:20.015Z,8.83
2018-12-25T22:18:48.706Z,8.67
2018-12-25T22:21:17.396Z,8.57
2018-12-25T22:23:46.179Z,8.80
2018-12-25T22:26:14.923Z,8.97
2018-12-25T22:28:43.594Z,8.80
2018-12-25T22:31:12.336Z,9.10
2018-12-25T22:33:41.061Z,8.90
2018-12-25T22:36:09.761Z,8.47
2018-12-25T22:38:38.436Z,9.20
2018-12-25T22:41:06.985Z,8.63
2018-12-25T22:43:35.582Z,8.83
2018-12-25T22:46:04.224Z,9.40
2018-12-25T22:48:33.292Z,9.30
2018-12-25T22:51:01.983Z,10.10
2018-12-25T22:53:30.732Z,9.57
2018-12-25T22:55:59.330Z,9.70
2018-12-25T22:58:27.990Z,8.90
2018-12-25T23:00:56.656Z,9.93
2018-12-25T23:03:27.471Z,9.97
2018-12-25T23:05:55.676Z,9.13
2018-12-25T23:08:24.225Z,9.47
2018-12-25T23:10:52.901Z,9.17
2018-12-25T23:13:21.478Z,9.77
2018-12-25T23:15:50.043Z,9.27
2018-12-25T23:18:18.675Z,9.47
2018-12-25T23:20:47.348Z,9.60
2018-12-25T23:23:16.340Z,10.33
2018-12-25T23:25:44.989Z,9.50
2018-12-25T23:28:13.548Z,9.30
2018-12-25T23:30:42.236Z,9.30
2018-12-25T23:33:10.898Z,10.53
2018-12-25T23:35:39.537Z,9.90
2018-12-25T23:38:08.082Z,9.70
2018-12-25T23:40:36.730Z,9.83
2018-12-25T23:43:05.388Z,9.17
2018-12-25T23:45:34.138Z,9.33
2018-12-25T23:48:02.795Z,10.33
2018-12-25T23:50:31.453Z,9.83
2018-12-25T23:53:00.109Z,9.80
2018-12-25T23:55:28.887Z,9.47
2018-12-25T23:57:57.483Z,9.90
